Sst Orleans — CFN5087 — position and weather

sailwx.info

Track history (hours):
 
Tides and Currents Weather Stations Pressure Air Temp Water Temp Dewpoint Dewpoint Depression Visibility Wind Speed Wind Dir Waves Ship Positions

Sst Orleans

Last reported at 2016-Apr-29 17:33 UTC. Time now 2016-Apr-29 17:44 UTC.
Position N 49°17' W 123°04'.

Length 29 m; draft 5.1 m.

Type: . MMSI: 316012721.

Date/timePositionNaut miles runAvg speedWind from/ knotsBaromVisibWave heightAir tempDewpointWater temp
2016-Apr-29 17:33N 49°17' W 123°04'0 0.0
2016-Apr-29 16:33N 49°17' W 123°04'0 0.0
2016-Apr-29 15:33N 49°17' W 123°04'0 0.0
2016-Apr-29 14:33N 49°17' W 123°04'0 0.0
2016-Apr-29 13:33N 49°17' W 123°04'0 0.0
2016-Apr-29 12:33N 49°17' W 123°04'0 0.0
2016-Apr-29 11:33N 49°17' W 123°04'0 0.0
2016-Apr-29 10:33N 49°17' W 123°04'0 0.0
2016-Apr-29 09:33N 49°17' W 123°04'0 0.0
2016-Apr-29 08:33N 49°17' W 123°04'0 0.0
2016-Apr-29 07:33N 49°17' W 123°04'9 9.0
2016-Apr-29 06:33N 49°20' W 123°17'1010.2
2016-Apr-29 05:34N 49°30' W 123°16'1010.4
2016-Apr-29 04:33N 49°40' W 123°12'1 0.9
2016-Apr-29 03:32N 49°40' W 123°11'0 0.3
2016-Apr-29 02:18N 49°41' W 123°11'6 8.7
2016-Apr-29 01:33N 49°35' W 123°15'1110.7
2016-Apr-29 00:33N 49°24' W 123°18'8 7.5
2016-Apr-28 23:33N 49°19' W 123°09'4 4.0
2016-Apr-28 22:33N 49°17' W 123°04'0 0.0
2016-Apr-28 21:33N 49°17' W 123°04'0 0.0
2016-Apr-28 20:33N 49°17' W 123°04'0 0.0
2016-Apr-28 19:33N 49°17' W 123°04'0 0.0
2016-Apr-28 18:33N 49°17' W 123°04'0 0.0
2016-Apr-28 17:33N 49°17' W 123°04'0 0.0
2016-Apr-28 16:33N 49°17' W 123°04'0 0.0
2016-Apr-28 15:33N 49°17' W 123°04'0 0.0
2016-Apr-28 14:33N 49°17' W 123°04'0 0.0
2016-Apr-28 13:33N 49°17' W 123°04'0 0.0
2016-Apr-28 12:33N 49°17' W 123°04'0 0.0
2016-Apr-28 11:33N 49°17' W 123°04'0 0.0
2016-Apr-28 10:33N 49°17' W 123°04'0 0.0
2016-Apr-28 09:33N 49°17' W 123°04'0 0.0
2016-Apr-28 08:33N 49°17' W 123°04'0 0.0
2016-Apr-28 07:33N 49°17' W 123°04'0 0.0
2016-Apr-28 06:33N 49°17' W 123°04'0 0.0
2016-Apr-28 05:33N 49°17' W 123°04'0 0.0
2016-Apr-28 04:33N 49°17' W 123°04'0 0.0
2016-Apr-28 03:33N 49°17' W 123°04'0 0.0
2016-Apr-28 02:33N 49°17' W 123°04'0 0.0
2016-Apr-28 01:33N 49°17' W 123°04'0 0.0
2016-Apr-28 00:33N 49°17' W 123°04'0 0.0
2016-Apr-27 23:33N 49°17' W 123°04'0 0.0
2016-Apr-27 22:33N 49°17' W 123°04'0 0.0
2016-Apr-27 21:33N 49°17' W 123°04'0 0.0
2016-Apr-27 20:33N 49°17' W 123°04'0 0.0
2016-Apr-27 19:33N 49°17' W 123°04'0 0.0
2016-Apr-27 18:33N 49°17' W 123°04'0 0.0
2016-Apr-27 17:33N 49°17' W 123°04'0 0.0
2016-Apr-27 16:33N 49°17' W 123°04'0 0.0
2016-Apr-27 15:33N 49°17' W 123°04'0 0.0
2016-Apr-27 14:33N 49°17' W 123°04'0 0.0
2016-Apr-27 13:33N 49°17' W 123°04'0 0.0
2016-Apr-27 12:33N 49°17' W 123°04'0 0.0
2016-Apr-27 11:33N 49°17' W 123°04'0 0.0
2016-Apr-27 10:33N 49°17' W 123°04'0 0.0
2016-Apr-27 09:33N 49°17' W 123°04'0 0.0
2016-Apr-27 08:33N 49°17' W 123°04'0 0.0
2016-Apr-27 07:33N 49°17' W 123°04'0 0.0
2016-Apr-27 06:33N 49°17' W 123°04'0 0.0
2016-Apr-27 05:33N 49°17' W 123°04'0 0.0
2016-Apr-27 04:33N 49°17' W 123°04'0 0.0
2016-Apr-27 03:33N 49°17' W 123°04'0 0.0
2016-Apr-27 02:33N 49°17' W 123°04'0 0.0
2016-Apr-27 01:33N 49°17' W 123°04'0 0.0
2016-Apr-27 00:33N 49°17' W 123°04'0 0.0
2016-Apr-26 23:33N 49°17' W 123°04'0 0.0
2016-Apr-26 22:33N 49°17' W 123°04'0 0.0
2016-Apr-26 21:33N 49°17' W 123°04'0 0.0
2016-Apr-26 20:33N 49°17' W 123°04'0 0.0
2016-Apr-26 19:33N 49°17' W 123°04'0 0.0
2016-Apr-26 18:33N 49°17' W 123°04'0 0.0
2016-Apr-26 17:33N 49°17' W 123°04'0 0.0
2016-Apr-26 16:33N 49°17' W 123°04'0 0.0
2016-Apr-26 15:33N 49°17' W 123°04'0 0.0
2016-Apr-26 14:33N 49°17' W 123°04'0 0.0
2016-Apr-26 13:33N 49°17' W 123°04'0 0.0
2016-Apr-26 12:33N 49°17' W 123°04'0 0.0
2016-Apr-26 11:33N 49°17' W 123°04'0 0.0
2016-Apr-26 10:33N 49°17' W 123°04'0 0.0
2016-Apr-26 09:33N 49°17' W 123°04'0 0.0
2016-Apr-26 08:33N 49°17' W 123°04'0 0.0
2016-Apr-26 07:33N 49°17' W 123°04'0 0.0
2016-Apr-26 06:33N 49°17' W 123°04'0 0.0
2016-Apr-26 05:33N 49°17' W 123°04'0 0.0
2016-Apr-26 04:33N 49°17' W 123°04'0 0.0
2016-Apr-26 03:33N 49°17' W 123°04'0 0.0
2016-Apr-26 02:33N 49°17' W 123°04'0 0.0
2016-Apr-26 01:33N 49°17' W 123°04'0 0.0
2016-Apr-26 00:33N 49°17' W 123°04'0 0.0
2016-Apr-25 23:33N 49°17' W 123°04'0 0.0
2016-Apr-25 22:33N 49°17' W 123°04'0 0.0
2016-Apr-25 21:33N 49°17' W 123°04'0 0.0
2016-Apr-25 20:33N 49°17' W 123°04'0 0.0
2016-Apr-25 19:33N 49°17' W 123°04'0 0.0
2016-Apr-25 18:33N 49°17' W 123°04'0 0.0
2016-Apr-25 17:33N 49°17' W 123°04'0 0.0
2016-Apr-25 16:33N 49°17' W 123°04'0 0.0
2016-Apr-25 15:33N 49°17' W 123°04'0 0.0
2016-Apr-25 14:33N 49°17' W 123°04'0 0.0
2016-Apr-25 13:33N 49°17' W 123°04'0 0.0
2016-Apr-25 12:33N 49°17' W 123°04'0 0.0
2016-Apr-25 11:33N 49°17' W 123°04'0 0.0
2016-Apr-25 10:33N 49°17' W 123°04'0 0.0
2016-Apr-25 09:33N 49°17' W 123°04'0 0.0
2016-Apr-25 08:33N 49°17' W 123°04'0 0.0
2016-Apr-25 07:33N 49°17' W 123°04'0 0.0
2016-Apr-25 06:33N 49°17' W 123°04'0 0.0
2016-Apr-25 05:33N 49°17' W 123°04'0 0.0
2016-Apr-25 04:33N 49°17' W 123°04'4 3.5
2016-Apr-25 03:33N 49°18' W 122°58'4 3.5
2016-Apr-25 02:33N 49°17' W 123°04'0 0.0
2016-Apr-25 01:33N 49°17' W 123°04'0 0.0
2016-Apr-25 00:33N 49°17' W 123°04'0 0.0
2016-Apr-24 23:33N 49°17' W 123°04'0 0.0
2016-Apr-24 22:33N 49°17' W 123°04'0 0.0
2016-Apr-24 21:33N 49°17' W 123°04'1 1.1
2016-Apr-24 20:33N 49°18' W 123°02'1 1.1
2016-Apr-24 19:33N 49°17' W 123°04'0 0.0
2016-Apr-24 18:33N 49°17' W 123°04'0 0.0
2016-Apr-24 17:33N 49°17' W 123°04'0 0.0
2016-Apr-24 16:33N 49°17' W 123°04'0 0.0
2016-Apr-24 15:33N 49°17' W 123°04'0 0.0
2016-Apr-24 14:33N 49°17' W 123°04'0 0.0
2016-Apr-24 13:33N 49°17' W 123°04'0 0.0
2016-Apr-24 12:33N 49°17' W 123°04'0 0.0
2016-Apr-24 11:33N 49°17' W 123°04'0 0.0
2016-Apr-24 10:33N 49°17' W 123°04'0 0.0
2016-Apr-24 09:33N 49°17' W 123°04'0 0.0
2016-Apr-24 08:33N 49°17' W 123°04'0 0.0
2016-Apr-24 07:33N 49°17' W 123°04'0 0.0
2016-Apr-24 06:33N 49°17' W 123°04'0 0.0
2016-Apr-24 05:33N 49°17' W 123°04'0 0.0
2016-Apr-24 04:33N 49°17' W 123°04'0 0.0
2016-Apr-24 03:33N 49°17' W 123°04'0 0.0
2016-Apr-24 02:33N 49°17' W 123°04'0 0.0
2016-Apr-24 01:33N 49°17' W 123°04'0 0.0
2016-Apr-24 00:33N 49°17' W 123°04'0 0.0
2016-Apr-23 23:33N 49°17' W 123°04'0 0.0
2016-Apr-23 22:33N 49°17' W 123°04'0 0.0
2016-Apr-23 21:33N 49°17' W 123°04'0 0.0
2016-Apr-23 20:33N 49°17' W 123°04'0 0.0
2016-Apr-23 19:33N 49°17' W 123°04'0 0.0
2016-Apr-23 18:33N 49°17' W 123°04'0 0.0
2016-Apr-23 17:33N 49°17' W 123°04'0 0.0
2016-Apr-23 16:33N 49°17' W 123°04'0 0.0
2016-Apr-23 15:33N 49°17' W 123°04'0 0.0
2016-Apr-23 14:33N 49°17' W 123°04'0 0.0
2016-Apr-23 13:33N 49°17' W 123°04'0 0.0
2016-Apr-23 12:33N 49°17' W 123°04'0 0.0
2016-Apr-23 11:33N 49°17' W 123°04'0 0.0
2016-Apr-23 10:33N 49°17' W 123°04'0 0.0
2016-Apr-23 09:33N 49°17' W 123°04'0 0.0
2016-Apr-23 08:33N 49°17' W 123°04'0 0.0
2016-Apr-23 07:33N 49°17' W 123°04'0 0.0
2016-Apr-23 06:33N 49°17' W 123°04'0 0.0
2016-Apr-23 05:33N 49°17' W 123°04'0 0.0
2016-Apr-23 04:33N 49°17' W 123°04'0 0.0
2016-Apr-23 03:33N 49°17' W 123°04'0 0.0
2016-Apr-23 02:33N 49°17' W 123°04'0 0.0
2016-Apr-23 01:33N 49°17' W 123°04'0 0.0
2016-Apr-23 00:33N 49°17' W 123°04'0 0.0
2016-Apr-22 23:33N 49°17' W 123°04'0 0.0
2016-Apr-22 22:33N 49°17' W 123°04'0 0.0
2016-Apr-22 21:33N 49°17' W 123°04'0 0.0
2016-Apr-22 20:33N 49°17' W 123°04'0 0.0
2016-Apr-22 19:33N 49°17' W 123°04'0 0.0
2016-Apr-22 18:33N 49°17' W 123°04'0 0.0
2016-Apr-22 17:33N 49°17' W 123°04'0 0.0
2016-Apr-22 16:33N 49°17' W 123°04'0 0.0
2016-Apr-22 15:33N 49°17' W 123°04'0 0.0
2016-Apr-22 14:33N 49°17' W 123°04'3 2.9
2016-Apr-22 13:33N 49°19' W 123°08'2 2.4
2016-Apr-22 12:33N 49°18' W 123°04'0 0.5
2016-Apr-22 11:33N 49°17' W 123°04'9 8.9
2016-Apr-22 10:33N 49°20' W 123°17'8 7.6
2016-Apr-22 09:33N 49°27' W 123°17'8 8.0
2016-Apr-22 08:33N 49°35' W 123°15'6 4.5
2016-Apr-22 07:13N 49°41' W 123°11'1 0.8
2016-Apr-22 06:32N 49°40' W 123°11'1 0.5
2016-Apr-22 05:32N 49°41' W 123°11'8 8.1
2016-Apr-22 04:33N 49°33' W 123°16'9 9.1
2016-Apr-22 03:33N 49°24' W 123°18'7 7.0
2016-Apr-22 02:33N 49°19' W 123°10'5 4.7
2016-Apr-22 01:33N 49°17' W 123°04'0 0.0
2016-Apr-22 00:33N 49°17' W 123°04'0 0.0
2016-Apr-21 23:33N 49°17' W 123°04'0 0.0
2016-Apr-21 22:33N 49°17' W 123°04'0 0.0
2016-Apr-21 21:33N 49°17' W 123°04'0 0.0
2016-Apr-21 20:33N 49°17' W 123°04'0 0.0
2016-Apr-21 19:33N 49°17' W 123°04'0 0.0
2016-Apr-21 18:33N 49°17' W 123°04'0 0.0
2016-Apr-21 17:33N 49°17' W 123°04'0 0.0
2016-Apr-21 16:33N 49°17' W 123°04'0 0.0
2016-Apr-21 15:33N 49°17' W 123°04'0 0.0
2016-Apr-21 14:33N 49°17' W 123°04'0 0.0
2016-Apr-21 13:33N 49°17' W 123°04'0 0.2
2016-Apr-21 12:34N 49°18' W 123°04'0 0.2
2016-Apr-21 11:33N 49°17' W 123°04'0 0.0
2016-Apr-21 10:33N 49°17' W 123°04'0 0.1
2016-Apr-21 09:33N 49°18' W 123°04'1 0.7
2016-Apr-21 08:33N 49°18' W 123°03'1 0.8
2016-Apr-21 07:33N 49°17' W 123°04'0 0.0
2016-Apr-21 06:33N 49°17' W 123°04'0 0.0
2016-Apr-21 05:33N 49°17' W 123°04'0 0.0
2016-Apr-21 04:33N 49°17' W 123°04'0 0.0
2016-Apr-21 03:33N 49°17' W 123°04'1 0.8
2016-Apr-21 02:33N 49°18' W 123°03'2 1.5
2016-Apr-21 01:34N 49°18' W 123°01'1 1.2
2016-Apr-21 00:33N 49°18' W 123°03'1 0.7
2016-Apr-20 23:33N 49°17' W 123°04'0 0.0
2016-Apr-20 22:33N 49°17' W 123°04'0 0.0
2016-Apr-20 21:33N 49°17' W 123°04'0 0.0
2016-Apr-20 20:33N 49°17' W 123°04'0 0.0
2016-Apr-20 19:33N 49°17' W 123°04'0 0.0
2016-Apr-20 18:33N 49°17' W 123°04'0 0.0
2016-Apr-20 17:33N 49°17' W 123°04'0 0.0
2016-Apr-20 16:33N 49°17' W 123°04'0 0.0
2016-Apr-20 15:33N 49°17' W 123°04'0 0.0
2016-Apr-20 14:33N 49°17' W 123°04'6 5.5
2016-Apr-20 13:33N 49°19' W 123°12'9 9.4
2016-Apr-20 12:33N 49°28' W 123°17'1212.0
2016-Apr-20 11:33N 49°40' W 123°13'1 1.0
2016-Apr-20 10:32N 49°40' W 123°11'4 3.6
2016-Apr-20 09:33N 49°37' W 123°14'4 4.4
2016-Apr-20 08:33N 49°33' W 123°16'5 4.6
2016-Apr-20 07:33N 49°29' W 123°17'8 7.7
2016-Apr-20 06:33N 49°21' W 123°18'9 9.1
2016-Apr-20 05:33N 49°18' W 123°04'1 0.6
2016-Apr-20 04:33N 49°17' W 123°04'0 0.0
2016-Apr-20 03:33N 49°17' W 123°04'0 0.0
2016-Apr-20 02:33N 49°17' W 123°04'0 0.0
2016-Apr-20 01:33N 49°17' W 123°04'0 0.0
2016-Apr-20 00:33N 49°17' W 123°04'3 2.8
2016-Apr-19 23:33N 49°19' W 123°08'3 2.8
2016-Apr-19 22:33N 49°17' W 123°04'0 0.0
2016-Apr-19 21:33N 49°17' W 123°04'0 0.0
2016-Apr-19 20:33N 49°17' W 123°04'0 0.0
2016-Apr-19 19:33N 49°17' W 123°04'0 0.0
2016-Apr-19 18:33N 49°17' W 123°04'  
Track history (hours):
 
Tides and Currents Weather Stations Pressure Air Temp Water Temp Dewpoint Dewpoint Depression Visibility Wind Speed Wind Dir Waves Ship Positions

Sst Orleans

Last reported at 2016-Apr-29 17:33 UTC. Time now 2016-Apr-29 17:44 UTC.
Position N 49°17' W 123°04'.

Length 29 m; draft 5.1 m.

Type: . MMSI: 316012721.

Date/timePositionNaut miles runAvg speedWind from/ knotsBaromVisibWave heightAir tempDewpointWater temp
2016-Apr-29 17:33N 49°17' W 123°04'0 0.0
2016-Apr-29 16:33N 49°17' W 123°04'0 0.0
2016-Apr-29 15:33N 49°17' W 123°04'0 0.0
2016-Apr-29 14:33N 49°17' W 123°04'0 0.0
2016-Apr-29 13:33N 49°17' W 123°04'0 0.0
2016-Apr-29 12:33N 49°17' W 123°04'0 0.0
2016-Apr-29 11:33N 49°17' W 123°04'0 0.0
2016-Apr-29 10:33N 49°17' W 123°04'0 0.0
2016-Apr-29 09:33N 49°17' W 123°04'0 0.0
2016-Apr-29 08:33N 49°17' W 123°04'0 0.0
2016-Apr-29 07:33N 49°17' W 123°04'9 9.0
2016-Apr-29 06:33N 49°20' W 123°17'1010.2
2016-Apr-29 05:34N 49°30' W 123°16'1010.4
2016-Apr-29 04:33N 49°40' W 123°12'1 0.9
2016-Apr-29 03:32N 49°40' W 123°11'0 0.3
2016-Apr-29 02:18N 49°41' W 123°11'6 8.7
2016-Apr-29 01:33N 49°35' W 123°15'1110.7
2016-Apr-29 00:33N 49°24' W 123°18'8 7.5
2016-Apr-28 23:33N 49°19' W 123°09'4 4.0
2016-Apr-28 22:33N 49°17' W 123°04'0 0.0
2016-Apr-28 21:33N 49°17' W 123°04'0 0.0
2016-Apr-28 20:33N 49°17' W 123°04'0 0.0
2016-Apr-28 19:33N 49°17' W 123°04'0 0.0
2016-Apr-28 18:33N 49°17' W 123°04'0 0.0
2016-Apr-28 17:33N 49°17' W 123°04'0 0.0
2016-Apr-28 16:33N 49°17' W 123°04'0 0.0
2016-Apr-28 15:33N 49°17' W 123°04'0 0.0
2016-Apr-28 14:33N 49°17' W 123°04'0 0.0
2016-Apr-28 13:33N 49°17' W 123°04'0 0.0
2016-Apr-28 12:33N 49°17' W 123°04'0 0.0
2016-Apr-28 11:33N 49°17' W 123°04'0 0.0
2016-Apr-28 10:33N 49°17' W 123°04'0 0.0
2016-Apr-28 09:33N 49°17' W 123°04'0 0.0
2016-Apr-28 08:33N 49°17' W 123°04'0 0.0
2016-Apr-28 07:33N 49°17' W 123°04'0 0.0
2016-Apr-28 06:33N 49°17' W 123°04'0 0.0
2016-Apr-28 05:33N 49°17' W 123°04'0 0.0
2016-Apr-28 04:33N 49°17' W 123°04'0 0.0
2016-Apr-28 03:33N 49°17' W 123°04'0 0.0
2016-Apr-28 02:33N 49°17' W 123°04'0 0.0
2016-Apr-28 01:33N 49°17' W 123°04'0 0.0
2016-Apr-28 00:33N 49°17' W 123°04'0 0.0
2016-Apr-27 23:33N 49°17' W 123°04'0 0.0
2016-Apr-27 22:33N 49°17' W 123°04'0 0.0
2016-Apr-27 21:33N 49°17' W 123°04'0 0.0
2016-Apr-27 20:33N 49°17' W 123°04'0 0.0
2016-Apr-27 19:33N 49°17' W 123°04'0 0.0
2016-Apr-27 18:33N 49°17' W 123°04'0 0.0
2016-Apr-27 17:33N 49°17' W 123°04'0 0.0
2016-Apr-27 16:33N 49°17' W 123°04'0 0.0
2016-Apr-27 15:33N 49°17' W 123°04'0 0.0
2016-Apr-27 14:33N 49°17' W 123°04'0 0.0
2016-Apr-27 13:33N 49°17' W 123°04'0 0.0
2016-Apr-27 12:33N 49°17' W 123°04'0 0.0
2016-Apr-27 11:33N 49°17' W 123°04'0 0.0
2016-Apr-27 10:33N 49°17' W 123°04'0 0.0
2016-Apr-27 09:33N 49°17' W 123°04'0 0.0
2016-Apr-27 08:33N 49°17' W 123°04'0 0.0
2016-Apr-27 07:33N 49°17' W 123°04'0 0.0
2016-Apr-27 06:33N 49°17' W 123°04'0 0.0
2016-Apr-27 05:33N 49°17' W 123°04'0 0.0
2016-Apr-27 04:33N 49°17' W 123°04'0 0.0
2016-Apr-27 03:33N 49°17' W 123°04'0 0.0
2016-Apr-27 02:33N 49°17' W 123°04'0 0.0
2016-Apr-27 01:33N 49°17' W 123°04'0 0.0
2016-Apr-27 00:33N 49°17' W 123°04'0 0.0
2016-Apr-26 23:33N 49°17' W 123°04'0 0.0
2016-Apr-26 22:33N 49°17' W 123°04'0 0.0
2016-Apr-26 21:33N 49°17' W 123°04'0 0.0
2016-Apr-26 20:33N 49°17' W 123°04'0 0.0
2016-Apr-26 19:33N 49°17' W 123°04'0 0.0
2016-Apr-26 18:33N 49°17' W 123°04'0 0.0
2016-Apr-26 17:33N 49°17' W 123°04'0 0.0
2016-Apr-26 16:33N 49°17' W 123°04'0 0.0
2016-Apr-26 15:33N 49°17' W 123°04'0 0.0
2016-Apr-26 14:33N 49°17' W 123°04'0 0.0
2016-Apr-26 13:33N 49°17' W 123°04'0 0.0
2016-Apr-26 12:33N 49°17' W 123°04'0 0.0
2016-Apr-26 11:33N 49°17' W 123°04'0 0.0
2016-Apr-26 10:33N 49°17' W 123°04'0 0.0
2016-Apr-26 09:33N 49°17' W 123°04'0 0.0
2016-Apr-26 08:33N 49°17' W 123°04'0 0.0
2016-Apr-26 07:33N 49°17' W 123°04'0 0.0
2016-Apr-26 06:33N 49°17' W 123°04'0 0.0
2016-Apr-26 05:33N 49°17' W 123°04'0 0.0
2016-Apr-26 04:33N 49°17' W 123°04'0 0.0
2016-Apr-26 03:33N 49°17' W 123°04'0 0.0
2016-Apr-26 02:33N 49°17' W 123°04'0 0.0
2016-Apr-26 01:33N 49°17' W 123°04'0 0.0
2016-Apr-26 00:33N 49°17' W 123°04'0 0.0
2016-Apr-25 23:33N 49°17' W 123°04'0 0.0
2016-Apr-25 22:33N 49°17' W 123°04'0 0.0
2016-Apr-25 21:33N 49°17' W 123°04'0 0.0
2016-Apr-25 20:33N 49°17' W 123°04'0 0.0
2016-Apr-25 19:33N 49°17' W 123°04'0 0.0
2016-Apr-25 18:33N 49°17' W 123°04'0 0.0
2016-Apr-25 17:33N 49°17' W 123°04'0 0.0
2016-Apr-25 16:33N 49°17' W 123°04'0 0.0
2016-Apr-25 15:33N 49°17' W 123°04'0 0.0
2016-Apr-25 14:33N 49°17' W 123°04'0 0.0
2016-Apr-25 13:33N 49°17' W 123°04'0 0.0
2016-Apr-25 12:33N 49°17' W 123°04'0 0.0
2016-Apr-25 11:33N 49°17' W 123°04'0 0.0
2016-Apr-25 10:33N 49°17' W 123°04'0 0.0
2016-Apr-25 09:33N 49°17' W 123°04'0 0.0
2016-Apr-25 08:33N 49°17' W 123°04'0 0.0
2016-Apr-25 07:33N 49°17' W 123°04'0 0.0
2016-Apr-25 06:33N 49°17' W 123°04'0 0.0
2016-Apr-25 05:33N 49°17' W 123°04'0 0.0
2016-Apr-25 04:33N 49°17' W 123°04'4 3.5
2016-Apr-25 03:33N 49°18' W 122°58'4 3.5
2016-Apr-25 02:33N 49°17' W 123°04'0 0.0
2016-Apr-25 01:33N 49°17' W 123°04'0 0.0
2016-Apr-25 00:33N 49°17' W 123°04'0 0.0
2016-Apr-24 23:33N 49°17' W 123°04'0 0.0
2016-Apr-24 22:33N 49°17' W 123°04'0 0.0
2016-Apr-24 21:33N 49°17' W 123°04'1 1.1
2016-Apr-24 20:33N 49°18' W 123°02'1 1.1
2016-Apr-24 19:33N 49°17' W 123°04'0 0.0
2016-Apr-24 18:33N 49°17' W 123°04'0 0.0
2016-Apr-24 17:33N 49°17' W 123°04'0 0.0
2016-Apr-24 16:33N 49°17' W 123°04'0 0.0
2016-Apr-24 15:33N 49°17' W 123°04'0 0.0
2016-Apr-24 14:33N 49°17' W 123°04'0 0.0
2016-Apr-24 13:33N 49°17' W 123°04'0 0.0
2016-Apr-24 12:33N 49°17' W 123°04'0 0.0
2016-Apr-24 11:33N 49°17' W 123°04'0 0.0
2016-Apr-24 10:33N 49°17' W 123°04'0 0.0
2016-Apr-24 09:33N 49°17' W 123°04'0 0.0
2016-Apr-24 08:33N 49°17' W 123°04'0 0.0
2016-Apr-24 07:33N 49°17' W 123°04'0 0.0
2016-Apr-24 06:33N 49°17' W 123°04'0 0.0
2016-Apr-24 05:33N 49°17' W 123°04'0 0.0
2016-Apr-24 04:33N 49°17' W 123°04'0 0.0
2016-Apr-24 03:33N 49°17' W 123°04'0 0.0
2016-Apr-24 02:33N 49°17' W 123°04'0 0.0
2016-Apr-24 01:33N 49°17' W 123°04'0 0.0
2016-Apr-24 00:33N 49°17' W 123°04'0 0.0
2016-Apr-23 23:33N 49°17' W 123°04'0 0.0
2016-Apr-23 22:33N 49°17' W 123°04'0 0.0
2016-Apr-23 21:33N 49°17' W 123°04'0 0.0
2016-Apr-23 20:33N 49°17' W 123°04'0 0.0
2016-Apr-23 19:33N 49°17' W 123°04'0 0.0
2016-Apr-23 18:33N 49°17' W 123°04'0 0.0
2016-Apr-23 17:33N 49°17' W 123°04'0 0.0
2016-Apr-23 16:33N 49°17' W 123°04'0 0.0
2016-Apr-23 15:33N 49°17' W 123°04'0 0.0
2016-Apr-23 14:33N 49°17' W 123°04'0 0.0
2016-Apr-23 13:33N 49°17' W 123°04'0 0.0
2016-Apr-23 12:33N 49°17' W 123°04'0 0.0
2016-Apr-23 11:33N 49°17' W 123°04'0 0.0
2016-Apr-23 10:33N 49°17' W 123°04'0 0.0
2016-Apr-23 09:33N 49°17' W 123°04'0 0.0
2016-Apr-23 08:33N 49°17' W 123°04'0 0.0
2016-Apr-23 07:33N 49°17' W 123°04'0 0.0
2016-Apr-23 06:33N 49°17' W 123°04'0 0.0
2016-Apr-23 05:33N 49°17' W 123°04'0 0.0
2016-Apr-23 04:33N 49°17' W 123°04'0 0.0
2016-Apr-23 03:33N 49°17' W 123°04'0 0.0
2016-Apr-23 02:33N 49°17' W 123°04'0 0.0
2016-Apr-23 01:33N 49°17' W 123°04'0 0.0
2016-Apr-23 00:33N 49°17' W 123°04'0 0.0
2016-Apr-22 23:33N 49°17' W 123°04'0 0.0
2016-Apr-22 22:33N 49°17' W 123°04'0 0.0
2016-Apr-22 21:33N 49°17' W 123°04'0 0.0
2016-Apr-22 20:33N 49°17' W 123°04'0 0.0
2016-Apr-22 19:33N 49°17' W 123°04'0 0.0
2016-Apr-22 18:33N 49°17' W 123°04'0 0.0
2016-Apr-22 17:33N 49°17' W 123°04'0 0.0
2016-Apr-22 16:33N 49°17' W 123°04'0 0.0
2016-Apr-22 15:33N 49°17' W 123°04'0 0.0
2016-Apr-22 14:33N 49°17' W 123°04'3 2.9
2016-Apr-22 13:33N 49°19' W 123°08'2 2.4
2016-Apr-22 12:33N 49°18' W 123°04'0 0.5
2016-Apr-22 11:33N 49°17' W 123°04'9 8.9
2016-Apr-22 10:33N 49°20' W 123°17'8 7.6
2016-Apr-22 09:33N 49°27' W 123°17'8 8.0
2016-Apr-22 08:33N 49°35' W 123°15'6 4.5
2016-Apr-22 07:13N 49°41' W 123°11'1 0.8
2016-Apr-22 06:32N 49°40' W 123°11'1 0.5
2016-Apr-22 05:32N 49°41' W 123°11'8 8.1
2016-Apr-22 04:33N 49°33' W 123°16'9 9.1
2016-Apr-22 03:33N 49°24' W 123°18'7 7.0
2016-Apr-22 02:33N 49°19' W 123°10'5 4.7
2016-Apr-22 01:33N 49°17' W 123°04'0 0.0
2016-Apr-22 00:33N 49°17' W 123°04'0 0.0
2016-Apr-21 23:33N 49°17' W 123°04'0 0.0
2016-Apr-21 22:33N 49°17' W 123°04'0 0.0
2016-Apr-21 21:33N 49°17' W 123°04'0 0.0
2016-Apr-21 20:33N 49°17' W 123°04'0 0.0
2016-Apr-21 19:33N 49°17' W 123°04'0 0.0
2016-Apr-21 18:33N 49°17' W 123°04'0 0.0
2016-Apr-21 17:33N 49°17' W 123°04'0 0.0
2016-Apr-21 16:33N 49°17' W 123°04'0 0.0
2016-Apr-21 15:33N 49°17' W 123°04'0 0.0
2016-Apr-21 14:33N 49°17' W 123°04'0 0.0
2016-Apr-21 13:33N 49°17' W 123°04'0 0.2
2016-Apr-21 12:34N 49°18' W 123°04'0 0.2
2016-Apr-21 11:33N 49°17' W 123°04'0 0.0
2016-Apr-21 10:33N 49°17' W 123°04'0 0.1
2016-Apr-21 09:33N 49°18' W 123°04'1 0.7
2016-Apr-21 08:33N 49°18' W 123°03'1 0.8
2016-Apr-21 07:33N 49°17' W 123°04'0 0.0
2016-Apr-21 06:33N 49°17' W 123°04'0 0.0
2016-Apr-21 05:33N 49°17' W 123°04'0 0.0
2016-Apr-21 04:33N 49°17' W 123°04'0 0.0
2016-Apr-21 03:33N 49°17' W 123°04'1 0.8
2016-Apr-21 02:33N 49°18' W 123°03'2 1.5
2016-Apr-21 01:34N 49°18' W 123°01'1 1.2
2016-Apr-21 00:33N 49°18' W 123°03'1 0.7
2016-Apr-20 23:33N 49°17' W 123°04'0 0.0
2016-Apr-20 22:33N 49°17' W 123°04'0 0.0
2016-Apr-20 21:33N 49°17' W 123°04'0 0.0
2016-Apr-20 20:33N 49°17' W 123°04'0 0.0
2016-Apr-20 19:33N 49°17' W 123°04'0 0.0
2016-Apr-20 18:33N 49°17' W 123°04'0 0.0
2016-Apr-20 17:33N 49°17' W 123°04'0 0.0
2016-Apr-20 16:33N 49°17' W 123°04'0 0.0
2016-Apr-20 15:33N 49°17' W 123°04'0 0.0
2016-Apr-20 14:33N 49°17' W 123°04'6 5.5
2016-Apr-20 13:33N 49°19' W 123°12'9 9.4
2016-Apr-20 12:33N 49°28' W 123°17'1212.0
2016-Apr-20 11:33N 49°40' W 123°13'1 1.0
2016-Apr-20 10:32N 49°40' W 123°11'4 3.6
2016-Apr-20 09:33N 49°37' W 123°14'4 4.4
2016-Apr-20 08:33N 49°33' W 123°16'5 4.6
2016-Apr-20 07:33N 49°29' W 123°17'8 7.7
2016-Apr-20 06:33N 49°21' W 123°18'9 9.1
2016-Apr-20 05:33N 49°18' W 123°04'1 0.6
2016-Apr-20 04:33N 49°17' W 123°04'0 0.0
2016-Apr-20 03:33N 49°17' W 123°04'0 0.0
2016-Apr-20 02:33N 49°17' W 123°04'0 0.0
2016-Apr-20 01:33N 49°17' W 123°04'0 0.0
2016-Apr-20 00:33N 49°17' W 123°04'3 2.8
2016-Apr-19 23:33N 49°19' W 123°08'3 2.8
2016-Apr-19 22:33N 49°17' W 123°04'0 0.0
2016-Apr-19 21:33N 49°17' W 123°04'0 0.0
2016-Apr-19 20:33N 49°17' W 123°04'0 0.0
2016-Apr-19 19:33N 49°17' W 123°04'0 0.0
2016-Apr-19 18:33N 49°17' W 123°04'  

Dump ship's entire track history